Time;durP1;ratioP1;P1;durP2;ratioP2;P2;SDS_P1;SDS_P2;PMS_P1;PMS_P2;Temp;Humidity;BMP_temperature;BMP_pressure;BME280_temperature;BME280_humidity;BME280_pressure;Samples;Min_cycle;Max_cycle;Signal;HPM_P1;HPM_P2
2021/04/16 00:00:44;;;;;;;;;;;23.50;40.50;;;;;;1527458;76;798;-62
2021/04/16 00:02:46;;;;;;;;;;;23.50;40.50;;;;;;1527296;76;1932;-63
2021/04/16 00:04:48;;;;;;;;;;;23.50;40.50;;;;;;1526632;76;1134;-63
2021/04/16 00:06:50;;;;;;;;;;;23.50;40.60;;;;;;1528605;76;792;-62
2021/04/16 00:08:51;;;;;;;;;;;23.50;40.70;;;;;;1525306;76;757;-63
2021/04/16 00:10:55;;;;;;;;;;;23.50;40.80;;;;;;1527658;76;802;-62
2021/04/16 00:12:57;;;;;;;;;;;23.50;40.80;;;;;;1525142;76;1792;-62
2021/04/16 00:14:59;;;;;;;;;;;23.50;40.80;;;;;;1527031;76;1107;-62
2021/04/16 00:17:00;;;;;;;;;;;23.60;40.80;;;;;;1531424;76;798;-62
2021/04/16 00:19:02;;;;;;;;;;;23.60;40.80;;;;;;1528743;76;729;-62
2021/04/16 00:21:04;;;;;;;;;;;23.50;40.80;;;;;;1527428;76;782;-62
2021/04/16 00:23:06;;;;;;;;;;;23.60;40.80;;;;;;1528527;76;1920;-62
2021/04/16 00:25:08;;;;;;;;;;;23.60;40.70;;;;;;1530173;76;1163;-62
2021/04/16 00:27:10;;;;;;;;;;;23.50;40.80;;;;;;1529499;76;971;-63
2021/04/16 00:29:12;;;;;;;;;;;23.50;40.70;;;;;;1528507;76;759;-61
2021/04/16 00:31:16;;;;;;;;;;;23.50;40.80;;;;;;1529206;76;672;-62
2021/04/16 00:33:17;;;;;;;;;;;23.60;40.60;;;;;;1527660;76;1120;-63
2021/04/16 00:35:19;;;;;;;;;;;23.50;40.80;;;;;;1528660;76;762;-62
2021/04/16 00:37:21;;;;;;;;;;;23.60;40.90;;;;;;1524642;76;780;-62
2021/04/16 00:39:23;;;;;;;;;;;23.50;41.00;;;;;;1526333;76;815;-62
2021/04/16 00:41:27;;;;;;;;;;;23.50;40.90;;;;;;1527500;76;786;-62
2021/04/16 00:43:29;;;;;;;;;;;23.50;40.80;;;;;;1528993;76;1924;-63
2021/04/16 00:45:31;;;;;;;;;;;23.50;40.90;;;;;;1526390;76;763;-62
2021/04/16 00:47:33;;;;;;;;;;;23.50;41.00;;;;;;1527291;76;732;-63
2021/04/16 00:49:46;;;;;;;;;;;23.60;40.90;;;;;;1527488;76;755;-64
2021/04/16 00:51:49;;;;;;;;;;;23.50;40.90;;;;;;1525369;76;1749;-60
2021/04/16 00:53:51;;;;;;;;;;;23.50;40.90;;;;;;1527368;76;1166;-62
2021/04/16 00:55:53;;;;;;;;;;;23.50;40.90;;;;;;1528316;76;803;-63
2021/04/16 00:57:55;;;;;;;;;;;23.60;40.90;;;;;;1524859;76;750;-63
2021/04/16 00:59:57;;;;;;;;;;;23.50;41.00;;;;;;1529123;76;696;-63
2021/04/16 01:01:59;;;;;;;;;;;23.50;41.00;;;;;;1527874;76;1924;-61
2021/04/16 01:04:01;;;;;;;;;;;23.60;40.90;;;;;;1528008;76;1144;-62
2021/04/16 01:06:05;;;;;;;;;;;23.60;41.00;;;;;;1528930;76;895;-62
2021/04/16 01:08:07;;;;;;;;;;;23.50;41.00;;;;;;1525993;76;781;-63
2021/04/16 01:10:09;;;;;;;;;;;23.60;41.00;;;;;;1529929;76;635;-62
2021/04/16 01:12:11;;;;;;;;;;;23.60;41.20;;;;;;1526869;76;796;-62
2021/04/16 01:14:13;;;;;;;;;;;23.50;41.30;;;;;;1525954;76;1158;-61
2021/04/16 01:16:18;;;;;;;;;;;23.60;41.30;;;;;;1526226;76;775;-61
2021/04/16 01:18:19;;;;;;;;;;;23.60;41.40;;;;;;1525670;76;1787;-63
2021/04/16 01:20:23;;;;;;;;;;;23.60;41.50;;;;;;1524274;76;814;-62
2021/04/16 01:22:26;;;;;;;;;;;23.50;41.50;;;;;;1518910;76;1944;-62
2021/04/16 01:24:28;;;;;;;;;;;23.50;41.50;;;;;;1522186;76;1828;-62
2021/04/16 01:26:34;;;;;;;;;;;23.50;41.50;;;;;;1518682;76;792;-62
2021/04/16 01:28:36;;;;;;;;;;;23.60;41.50;;;;;;1529153;76;705;-62
2021/04/16 01:30:39;;;;;;;;;;;23.50;41.70;;;;;;1514899;76;734;-63
2021/04/16 01:32:41;;;;;;;;;;;23.50;41.80;;;;;;1518021;76;1091;-62
2021/04/16 01:34:43;;;;;;;;;;;23.60;41.90;;;;;;1521027;76;1153;-63
2021/04/16 01:36:45;;;;;;;;;;;23.60;42.00;;;;;;1519508;76;774;-64
2021/04/16 01:38:47;;;;;;;;;;;23.50;42.00;;;;;;1524038;76;760;-62
2021/04/16 01:40:49;;;;;;;;;;;23.50;42.20;;;;;;1520972;76;806;-63
2021/04/16 01:42:51;;;;;;;;;;;23.50;42.10;;;;;;1521657;76;1940;-63
2021/04/16 01:44:53;;;;;;;;;;;23.50;42.20;;;;;;1523113;76;1118;-63
2021/04/16 01:46:59;;;;;;;;;;;23.60;42.20;;;;;;1528432;76;728;-63
2021/04/16 01:49:01;;;;;;;;;;;23.50;42.20;;;;;;1523467;76;1695;-63
2021/04/16 01:51:03;;;;;;;;;;;23.60;42.20;;;;;;1515514;76;779;-63
2021/04/16 01:53:05;;;;;;;;;;;23.60;42.20;;;;;;1529575;76;725;-63
2021/04/16 01:55:07;;;;;;;;;;;23.60;42.10;;;;;;1526499;76;1082;-63
2021/04/16 01:57:10;;;;;;;;;;;23.60;42.10;;;;;;1520751;76;784;-63
2021/04/16 01:59:20;;;;;;;;;;;23.50;42.10;;;;;;1518908;76;724;-62
2021/04/16 02:01:22;;;;;;;;;;;23.50;42.10;;;;;;1528833;76;1236;-62
2021/04/16 02:03:24;;;;;;;;;;;23.50;42.30;;;;;;1520059;76;1947;-61
2021/04/16 02:05:26;;;;;;;;;;;23.50;42.20;;;;;;1528409;76;713;-63
2021/04/16 02:07:28;;;;;;;;;;;23.50;42.20;;;;;;1524388;76;733;-63
2021/04/16 02:09:30;;;;;;;;;;;23.60;42.30;;;;;;1528954;76;825;-62
2021/04/16 02:11:32;;;;;;;;;;;23.60;42.20;;;;;;1529447;76;686;-63
2021/04/16 02:13:34;;;;;;;;;;;23.60;42.20;;;;;;1535568;76;1143;-63
2021/04/16 02:15:36;;;;;;;;;;;23.60;42.20;;;;;;1537777;76;744;-63
2021/04/16 02:17:38;;;;;;;;;;;23.60;42.00;;;;;;1536188;76;839;-63
2021/04/16 02:19:40;;;;;;;;;;;23.50;42.20;;;;;;1536467;76;682;-62
2021/04/16 02:21:42;;;;;;;;;;;23.50;42.30;;;;;;1537626;76;747;-61
2021/04/16 02:23:44;;;;;;;;;;;23.60;42.30;;;;;;1535450;76;1930;-63
2021/04/16 02:25:46;;;;;;;;;;;23.60;42.30;;;;;;1525273;76;790;-63
2021/04/16 02:27:47;;;;;;;;;;;23.60;42.40;;;;;;1538356;76;770;-62
2021/04/16 02:29:49;;;;;;;;;;;23.60;42.30;;;;;;1536253;76;846;-62
2021/04/16 02:31:51;;;;;;;;;;;23.50;42.20;;;;;;1532427;76;809;-63
2021/04/16 02:33:53;;;;;;;;;;;23.50;42.30;;;;;;1532091;76;1147;-62
2021/04/16 02:35:55;;;;;;;;;;;23.60;42.30;;;;;;1526871;76;846;-62
2021/04/16 02:37:57;;;;;;;;;;;23.50;42.40;;;;;;1534075;76;792;-62
2021/04/16 02:39:59;;;;;;;;;;;23.60;42.40;;;;;;1526376;76;749;-63
2021/04/16 02:42:01;;;;;;;;;;;23.60;42.60;;;;;;1528434;76;731;-62
2021/04/16 02:44:03;;;;;;;;;;;23.50;42.60;;;;;;1527088;76;1926;-63
2021/04/16 02:46:05;;;;;;;;;;;23.50;42.60;;;;;;1550031;76;741;-63
2021/04/16 02:48:07;;;;;;;;;;;23.50;42.60;;;;;;1537823;76;715;-63
2021/04/16 02:50:10;;;;;;;;;;;23.50;42.60;;;;;;1534348;76;874;-63
2021/04/16 02:52:12;;;;;;;;;;;23.50;42.70;;;;;;1526828;76;668;-63
2021/04/16 02:54:14;;;;;;;;;;;23.50;42.60;;;;;;1530662;76;1141;-63
2021/04/16 02:56:16;;;;;;;;;;;23.40;42.60;;;;;;1533319;76;861;-63
2021/04/16 02:58:18;;;;;;;;;;;23.40;42.70;;;;;;1537379;76;757;-64
2021/04/16 03:00:21;;;;;;;;;;;23.40;42.60;;;;;;1532837;76;750;-64
2021/04/16 03:02:23;;;;;;;;;;;23.50;42.50;;;;;;1519470;76;722;-64
2021/04/16 03:04:25;;;;;;;;;;;23.50;42.40;;;;;;1524541;76;1949;-64
2021/04/16 03:06:27;;;;;;;;;;;23.50;42.50;;;;;;1522663;76;667;-63
2021/04/16 03:08:28;;;;;;;;;;;23.40;42.40;;;;;;1527596;76;730;-64
2021/04/16 03:10:31;;;;;;;;;;;23.50;42.50;;;;;;1530922;76;779;-61
2021/04/16 03:12:33;;;;;;;;;;;23.40;42.30;;;;;;1534753;76;784;-63
2021/04/16 03:14:35;;;;;;;;;;;23.40;42.30;;;;;;1530157;76;1115;-63
2021/04/16 03:16:37;;;;;;;;;;;23.40;42.40;;;;;;1533808;76;790;-63
2021/04/16 03:18:39;;;;;;;;;;;23.40;42.30;;;;;;1531403;76;781;-64
2021/04/16 03:20:41;;;;;;;;;;;23.30;42.30;;;;;;1534064;76;971;-63
2021/04/16 03:22:42;;;;;;;;;;;23.30;42.40;;;;;;1532466;76;915;-65
2021/04/16 03:24:44;;;;;;;;;;;23.20;42.30;;;;;;1534058;76;1942;-64
2021/04/16 03:26:46;;;;;;;;;;;23.20;42.40;;;;;;1533368;76;741;-63
2021/04/16 03:28:50;;;;;;;;;;;23.20;42.40;;;;;;1533990;76;799;-64
2021/04/16 03:30:51;;;;;;;;;;;23.20;42.50;;;;;;1531545;76;1964;-64
2021/04/16 03:32:53;;;;;;;;;;;23.20;42.40;;;;;;1533304;76;820;-63
2021/04/16 03:34:55;;;;;;;;;;;23.20;42.40;;;;;;1533991;76;1166;-63
2021/04/16 03:36:57;;;;;;;;;;;23.20;42.60;;;;;;1530591;76;776;-64
2021/04/16 03:38:59;;;;;;;;;;;23.20;42.70;;;;;;1531872;76;745;-64
2021/04/16 03:41:01;;;;;;;;;;;23.20;42.70;;;;;;1528704;76;675;-63
2021/04/16 03:43:03;;;;;;;;;;;23.20;42.70;;;;;;1533331;76;1933;-61
2021/04/16 03:45:05;;;;;;;;;;;23.20;42.70;;;;;;1530631;76;1117;-64
2021/04/16 03:47:07;;;;;;;;;;;23.20;42.80;;;;;;1537922;76;722;-63
2021/04/16 03:49:09;;;;;;;;;;;23.20;42.70;;;;;;1530744;76;854;-65
2021/04/16 03:51:11;;;;;;;;;;;23.20;42.80;;;;;;1540333;76;741;-63
2021/04/16 03:53:13;;;;;;;;;;;23.10;42.80;;;;;;1529542;76;811;-63
2021/04/16 03:55:15;;;;;;;;;;;23.10;42.80;;;;;;1533596;76;1075;-63
2021/04/16 03:57:17;;;;;;;;;;;23.20;42.70;;;;;;1524523;76;716;-63
2021/04/16 03:59:19;;;;;;;;;;;23.20;42.60;;;;;;1534071;76;869;-63
2021/04/16 04:01:21;;;;;;;;;;;23.10;42.70;;;;;;1530563;76;982;-63
2021/04/16 04:03:23;;;;;;;;;;;23.20;42.60;;;;;;1529073;76;1938;-64
2021/04/16 04:05:25;;;;;;;;;;;23.20;42.50;;;;;;1531246;76;738;-63
2021/04/16 04:07:27;;;;;;;;;;;23.20;42.40;;;;;;1530454;76;757;-63
2021/04/16 04:09:29;;;;;;;;;;;23.30;42.40;;;;;;1531435;76;815;-63
2021/04/16 04:11:31;;;;;;;;;;;23.40;42.20;;;;;;1532392;76;786;-65
2021/04/16 04:13:33;;;;;;;;;;;23.30;42.10;;;;;;1534077;76;1144;-64
2021/04/16 04:15:34;;;;;;;;;;;23.30;42.10;;;;;;1540487;74;218251;-67
2021/04/16 04:17:37;;;;;;;;;;;23.40;42.10;;;;;;1527711;76;828;-66
2021/04/16 04:19:39;;;;;;;;;;;23.40;41.80;;;;;;1531914;76;805;-66
2021/04/16 04:21:40;;;;;;;;;;;23.40;41.80;;;;;;1516928;76;765;-67
2021/04/16 04:23:42;;;;;;;;;;;23.40;41.80;;;;;;1538594;76;1974;-67
2021/04/16 04:25:44;;;;;;;;;;;23.40;41.80;;;;;;1517704;76;1203;-67
2021/04/16 04:27:46;;;;;;;;;;;23.30;41.80;;;;;;1516135;77;787;-67
2021/04/16 04:29:48;;;;;;;;;;;23.30;42.10;;;;;;1508126;77;940;-67
2021/04/16 04:31:51;;;;;;;;;;;23.20;42.10;;;;;;1518454;76;812;-67
2021/04/16 04:33:52;;;;;;;;;;;23.20;42.10;;;;;;1510941;76;709;-66
2021/04/16 04:35:54;;;;;;;;;;;23.20;42.20;;;;;;1503252;77;1162;-66
2021/04/16 04:37:56;;;;;;;;;;;23.20;42.20;;;;;;1518167;76;786;-66
2021/04/16 04:39:58;;;;;;;;;;;23.20;42.20;;;;;;1505309;77;750;-69
2021/04/16 04:42:00;;;;;;;;;;;23.20;42.20;;;;;;1510842;77;737;-68
2021/04/16 04:44:02;;;;;;;;;;;23.20;42.10;;;;;;1509712;77;1923;-67
2021/04/16 04:46:04;;;;;;;;;;;23.20;42.10;;;;;;1503600;77;738;-68
2021/04/16 04:48:06;;;;;;;;;;;23.20;42.10;;;;;;1515729;77;706;-65
2021/04/16 04:50:08;;;;;;;;;;;23.20;42.20;;;;;;1519941;77;951;-66
2021/04/16 04:52:12;;;;;;;;;;;23.20;42.30;;;;;;1512204;77;729;-67
2021/04/16 04:54:14;;;;;;;;;;;23.20;42.20;;;;;;1524900;77;1130;-66
2021/04/16 04:56:16;;;;;;;;;;;23.20;42.30;;;;;;1516496;77;730;-63
2021/04/16 04:58:17;;;;;;;;;;;23.20;42.30;;;;;;1508819;77;758;-66
2021/04/16 05:00:20;;;;;;;;;;;23.20;42.20;;;;;;1513927;77;778;-69
2021/04/16 05:02:22;;;;;;;;;;;23.20;42.30;;;;;;1509289;77;761;-68
2021/04/16 05:04:24;;;;;;;;;;;23.20;42.30;;;;;;1513664;77;1914;-67
2021/04/16 05:06:26;;;;;;;;;;;23.20;42.20;;;;;;1520584;77;757;-66
2021/04/16 05:08:28;;;;;;;;;;;23.10;42.30;;;;;;1512549;77;847;-66
2021/04/16 05:10:30;;;;;;;;;;;23.20;42.30;;;;;;1521150;77;761;-65
2021/04/16 05:12:31;;;;;;;;;;;23.20;42.30;;;;;;1508154;77;761;-64
2021/04/16 05:14:33;;;;;;;;;;;23.10;42.40;;;;;;1513060;77;1137;-65
2021/04/16 05:16:35;;;;;;;;;;;23.20;42.40;;;;;;1513756;77;791;-66
2021/04/16 05:18:37;;;;;;;;;;;23.20;42.50;;;;;;1516167;77;695;-65
2021/04/16 05:20:39;;;;;;;;;;;23.10;42.60;;;;;;1511291;77;712;-65
2021/04/16 05:22:41;;;;;;;;;;;23.10;42.60;;;;;;1513200;77;742;-65
2021/04/16 05:24:43;;;;;;;;;;;23.10;42.70;;;;;;1514580;77;1953;-66
2021/04/16 05:26:45;;;;;;;;;;;23.10;42.70;;;;;;1511504;77;702;-66
2021/04/16 05:28:47;;;;;;;;;;;23.10;42.50;;;;;;1510351;77;804;-69
2021/04/16 05:30:49;;;;;;;;;;;23.10;42.50;;;;;;1502308;77;765;-65
2021/04/16 05:32:50;;;;;;;;;;;23.10;42.60;;;;;;1507319;77;788;-64
2021/04/16 05:34:52;;;;;;;;;;;23.10;42.60;;;;;;1508861;77;1160;-64
2021/04/16 05:36:54;;;;;;;;;;;23.10;42.80;;;;;;1517914;77;738;-65
2021/04/16 05:38:56;;;;;;;;;;;23.10;42.80;;;;;;1516240;77;763;-64
2021/04/16 05:40:58;;;;;;;;;;;23.10;42.90;;;;;;1513806;77;761;-64
2021/04/16 05:43:00;;;;;;;;;;;23.10;43.00;;;;;;1510015;77;769;-63
2021/04/16 05:45:02;;;;;;;;;;;23.00;42.90;;;;;;1519397;77;1944;-66
2021/04/16 05:47:04;;;;;;;;;;;23.00;42.90;;;;;;1507878;77;823;-64
2021/04/16 05:49:06;;;;;;;;;;;23.10;43.00;;;;;;1510966;77;801;-64
2021/04/16 05:51:08;;;;;;;;;;;23.20;43.10;;;;;;1508561;77;759;-72
2021/04/16 05:53:10;;;;;;;;;;;23.20;42.80;;;;;;1506516;77;779;-70
2021/04/16 05:55:12;;;;;;;;;;;23.20;42.50;;;;;;1512034;77;1154;-70
2021/04/16 05:57:14;;;;;;;;;;;23.40;41.90;;;;;;1513525;77;751;-70
2021/04/16 05:59:16;;;;;;;;;;;23.50;41.50;;;;;;1514295;77;798;-71
2021/04/16 06:01:18;;;;;;;;;;;23.60;41.20;;;;;;1508242;77;724;-67
2021/04/16 06:03:20;;;;;;;;;;;23.50;41.20;;;;;;1508480;77;817;-70
2021/04/16 06:05:22;;;;;;;;;;;23.60;41.90;;;;;;1514459;77;1967;-75
2021/04/16 06:07:24;;;;;;;;;;;23.70;41.50;;;;;;1516460;77;797;-70
2021/04/16 06:09:25;;;;;;;;;;;23.70;41.40;;;;;;1509773;77;705;-72
2021/04/16 06:11:27;;;;;;;;;;;23.80;41.00;;;;;;1515950;77;798;-70
2021/04/16 06:13:29;;;;;;;;;;;23.90;40.20;;;;;;1513775;77;760;-69
2021/04/16 06:15:31;;;;;;;;;;;23.90;39.60;;;;;;1519558;77;1160;-77
2021/04/16 06:17:34;;;;;;;;;;;24.00;39.00;;;;;;1514280;77;757;-70
2021/04/16 06:19:36;;;;;;;;;;;24.10;39.10;;;;;;1514411;77;710;-73
2021/04/16 06:21:38;;;;;;;;;;;24.10;38.50;;;;;;1517569;77;780;-72
2021/04/16 06:23:40;;;;;;;;;;;24.20;37.90;;;;;;1509031;77;740;-72
2021/04/16 06:25:41;;;;;;;;;;;24.10;34.70;;;;;;1522549;77;1938;-70
2021/04/16 06:27:44;;;;;;;;;;;24.10;35.50;;;;;;1518467;77;792;-67
2021/04/16 06:29:46;;;;;;;;;;;24.10;36.00;;;;;;1515896;77;733;-68
2021/04/16 06:31:48;;;;;;;;;;;24.10;36.20;;;;;;1529181;77;710;-69
2021/04/16 06:33:50;;;;;;;;;;;24.20;36.20;;;;;;1520071;77;766;-69
2021/04/16 06:35:55;;;;;;;;;;;24.20;36.20;;;;;;1522236;77;1138;-71
2021/04/16 06:37:57;;;;;;;;;;;24.30;36.30;;;;;;1516896;77;820;-72
2021/04/16 06:39:59;;;;;;;;;;;24.40;36.20;;;;;;1515692;77;829;-71
2021/04/16 06:42:01;;;;;;;;;;;24.50;36.10;;;;;;1517834;77;826;-71
2021/04/16 06:44:06;;;;;;;;;;;24.50;36.00;;;;;;1501294;77;1919;-71
2021/04/16 06:46:08;;;;;;;;;;;24.60;35.90;;;;;;1515527;77;714;-73
2021/04/16 06:48:10;;;;;;;;;;;24.60;35.70;;;;;;1491107;78;855;-72
2021/04/16 06:50:13;;;;;;;;;;;24.60;36.10;;;;;;1518106;77;678;-70
2021/04/16 06:52:17;;;;;;;;;;;24.70;37.40;;;;;;1517768;77;741;-73
2021/04/16 06:54:20;;;;;;;;;;;24.60;37.30;;;;;;1518560;77;1169;-71
2021/04/16 06:56:23;;;;;;;;;;;24.70;37.60;;;;;;1507566;77;820;-71
2021/04/16 06:58:37;;;;;;;;;;;24.80;37.70;;;;;;1515035;77;1989;-71
2021/04/16 07:00:44;;;;;;;;;;;24.80;37.50;;;;;;1506621;77;597;-71
2021/04/16 07:02:47;;;;;;;;;;;24.80;37.80;;;;;;1504438;77;792;-71
2021/04/16 07:04:51;;;;;;;;;;;24.80;37.60;;;;;;1513306;77;1958;-71
2021/04/16 07:06:53;;;;;;;;;;;24.90;37.70;;;;;;1513013;77;951;-71
2021/04/16 07:09:09;;;;;;;;;;;25.00;37.60;;;;;;1510064;77;617;-71
2021/04/16 07:11:29;;;;;;;;;;;25.00;37.60;;;;;;1510246;77;803;-71
2021/04/16 07:13:35;;;;;;;;;;;25.00;37.40;;;;;;1506576;77;731;-71
2021/04/16 07:15:39;;;;;;;;;;;25.10;37.40;;;;;;1515955;77;1163;-71
2021/04/16 07:17:41;;;;;;;;;;;25.10;37.30;;;;;;1511014;77;1958;-72
2021/04/16 07:19:43;;;;;;;;;;;25.10;37.20;;;;;;1514043;77;816;-71
2021/04/16 07:21:45;;;;;;;;;;;25.10;37.40;;;;;;1505388;77;795;-68
2021/04/16 07:23:51;;;;;;;;;;;25.10;37.20;;;;;;1511765;77;765;-71
2021/04/16 07:25:55;;;;;;;;;;;25.20;37.20;;;;;;1514315;77;1948;-71
2021/04/16 07:27:58;;;;;;;;;;;25.20;37.10;;;;;;1514052;77;1652;-74
2021/04/16 07:30:00;;;;;;;;;;;25.20;37.10;;;;;;1502199;77;741;-71
2021/04/16 07:32:02;;;;;;;;;;;25.20;37.00;;;;;;1500495;77;749;-71
2021/04/16 07:34:04;;;;;;;;;;;25.20;37.10;;;;;;1507698;77;1193;-71
2021/04/16 07:36:20;;;;;;;;;;;25.20;37.00;;;;;;1509110;77;756;-68
2021/04/16 07:38:23;;;;;;;;;;;25.20;37.00;;;;;;1518219;77;828;-71
2021/04/16 07:40:30;;;;;;;;;;;25.20;37.00;;;;;;1505821;77;2033;-72
2021/04/16 07:42:39;;;;;;;;;;;25.30;36.90;;;;;;1504254;77;987;-71
2021/04/16 07:44:42;;;;;;;;;;;25.40;36.80;;;;;;1517473;77;1939;-71
2021/04/16 07:46:45;;;;;;;;;;;25.30;36.80;;;;;;1509700;77;840;-71
2021/04/16 07:48:47;;;;;;;;;;;25.30;36.80;;;;;;1483802;78;727;-70
2021/04/16 07:50:52;;;;;;;;;;;25.20;36.70;;;;;;1516349;77;731;-72
2021/04/16 07:52:55;;;;;;;;;;;25.30;36.70;;;;;;1516636;77;863;-71
2021/04/16 07:55:13;;;;;;;;;;;25.20;36.70;;;;;;1510917;77;1119;-71
2021/04/16 07:57:19;;;;;;;;;;;25.10;36.90;;;;;;1503890;77;723;-69
2021/04/16 07:59:21;;;;;;;;;;;25.00;37.00;;;;;;1512407;77;793;-73
2021/04/16 08:01:28;;;;;;;;;;;25.00;37.10;;;;;;1518044;77;762;-70
2021/04/16 08:03:30;;;;;;;;;;;25.00;37.20;;;;;;1509360;77;709;-71
2021/04/16 08:05:33;;;;;;;;;;;24.90;37.30;;;;;;1494507;78;1962;-71
2021/04/16 08:07:36;;;;;;;;;;;24.90;37.30;;;;;;1499072;77;745;-70
2021/04/16 08:09:38;;;;;;;;;;;24.90;37.30;;;;;;1503668;78;765;-71
2021/04/16 08:11:39;;;;;;;;;;;24.80;37.40;;;;;;1524167;76;743;-71
2021/04/16 08:13:46;;;;;;;;;;;24.80;37.50;;;;;;1530878;76;729;-73
2021/04/16 08:15:48;;;;;;;;;;;24.70;37.60;;;;;;1526780;76;1124;-70
2021/04/16 08:17:50;;;;;;;;;;;24.70;37.60;;;;;;1539631;76;834;-71
2021/04/16 08:19:52;;;;;;;;;;;24.70;37.70;;;;;;1502832;77;694;-71
2021/04/16 08:21:55;;;;;;;;;;;24.60;37.60;;;;;;1504776;77;676;-72
2021/04/16 08:23:59;;;;;;;;;;;24.70;37.80;;;;;;1531082;76;1052;-72
2021/04/16 08:26:02;;;;;;;;;;;24.70;37.80;;;;;;1530847;76;1918;-70
2021/04/16 08:28:05;;;;;;;;;;;24.60;37.60;;;;;;1533990;76;698;-70
2021/04/16 08:30:25;;;;;;;;;;;24.60;37.70;;;;;;1522419;76;1012;-69
2021/04/16 08:32:34;;;;;;;;;;;24.60;37.80;;;;;;1535939;76;1025;-70
2021/04/16 08:34:38;;;;;;;;;;;24.60;37.90;;;;;;1525827;76;1225;-69
2021/04/16 08:36:40;;;;;;;;;;;24.70;37.90;;;;;;1534194;76;780;-70
2021/04/16 08:38:59;;;;;;;;;;;24.60;37.70;;;;;;1524077;76;764;-70
2021/04/16 08:41:01;;;;;;;;;;;24.70;37.80;;;;;;1505625;77;781;-70
2021/04/16 08:43:03;;;;;;;;;;;24.60;37.70;;;;;;1545858;76;752;-70
2021/04/16 08:45:07;;;;;;;;;;;24.50;37.80;;;;;;1509803;77;1931;-68
2021/04/16 08:47:10;;;;;;;;;;;24.50;37.80;;;;;;1519935;76;732;-70
2021/04/16 08:49:14;;;;;;;;;;;24.50;37.90;;;;;;1518643;76;2111;-70
2021/04/16 08:51:16;;;;;;;;;;;24.50;37.90;;;;;;1524625;76;786;-70
2021/04/16 08:53:17;;;;;;;;;;;24.50;38.10;;;;;;1522358;76;751;-69
2021/04/16 08:55:21;;;;;;;;;;;24.50;38.10;;;;;;1532342;76;1137;-71
2021/04/16 08:57:27;;;;;;;;;;;24.50;38.10;;;;;;1525247;76;814;-67
2021/04/16 08:59:30;;;;;;;;;;;24.70;38.10;;;;;;1523933;76;783;-71
2021/04/16 09:01:33;;;;;;;;;;;24.60;37.80;;;;;;1528719;76;966;-70
2021/04/16 09:03:47;;;;;;;;;;;24.70;37.90;;;;;;1526565;76;729;-70
2021/04/16 09:05:54;;;;;;;;;;;24.70;37.80;;;;;;1524283;76;1910;-70
2021/04/16 09:07:57;;;;;;;;;;;24.70;37.80;;;;;;1519218;76;741;-71
2021/04/16 09:10:00;;;;;;;;;;;24.70;37.70;;;;;;1516793;76;773;-70
2021/04/16 09:12:02;;;;;;;;;;;24.80;37.60;;;;;;1514164;76;732;-69
2021/04/16 09:14:04;;;;;;;;;;;24.80;37.60;;;;;;1509938;76;1113;-69
2021/04/16 09:16:07;;;;;;;;;;;24.80;37.60;;;;;;1516761;76;787;-70
2021/04/16 09:18:13;;;;;;;;;;;24.80;37.50;;;;;;1508435;76;1694;-70
2021/04/16 09:20:15;;;;;;;;;;;24.80;37.50;;;;;;1515939;76;700;-70
2021/04/16 09:22:18;;;;;;;;;;;24.80;37.50;;;;;;1510143;76;790;-69
2021/04/16 09:24:22;;;;;;;;;;;24.80;37.40;;;;;;1530574;76;1171;-70
2021/04/16 09:26:41;;;;;;;;;;;24.80;37.40;;;;;;1525140;76;1930;-70
2021/04/16 09:28:45;;;;;;;;;;;24.80;37.30;;;;;;1522156;76;714;-70
2021/04/16 09:30:47;;;;;;;;;;;24.80;37.30;;;;;;1522641;76;794;-70
2021/04/16 09:32:50;;;;;;;;;;;24.80;37.30;;;;;;1538543;76;776;-70
2021/04/16 09:34:53;;;;;;;;;;;24.80;37.20;;;;;;1515869;77;1189;-67
2021/04/16 09:37:14;;;;;;;;;;;24.80;37.10;;;;;;1514301;77;747;-69
2021/04/16 09:39:18;;;;;;;;;;;24.70;31.80;;;;;;1514566;77;771;-69
2021/04/16 09:41:26;;;;;;;;;;;24.70;34.80;;;;;;1495388;77;1801;-69
2021/04/16 09:43:28;;;;;;;;;;;24.70;35.30;;;;;;1518145;77;1658;-69
2021/04/16 09:45:33;;;;;;;;;;;24.60;35.20;;;;;;1526249;77;1937;-70
2021/04/16 09:47:43;;;;;;;;;;;24.70;35.30;;;;;;1514870;77;725;-70
2021/04/16 09:49:49;;;;;;;;;;;24.70;35.50;;;;;;1517384;77;1089;-73
2021/04/16 09:51:52;;;;;;;;;;;24.70;35.50;;;;;;1505310;77;2187;-70
2021/04/16 09:54:10;;;;;;;;;;;24.60;35.40;;;;;;1516988;77;816;-69
2021/04/16 09:56:14;;;;;;;;;;;24.70;35.50;;;;;;1516160;77;725;-72
2021/04/16 09:58:33;;;;;;;;;;;24.70;35.60;;;;;;1518793;77;1842;-68
2021/04/16 10:00:36;;;;;;;;;;;24.60;35.50;;;;;;1519860;77;886;-69
2021/04/16 10:02:38;;;;;;;;;;;24.70;35.70;;;;;;1528481;77;1854;-70
2021/04/16 10:04:54;;;;;;;;;;;24.60;35.70;;;;;;1519785;77;1144;-69
2021/04/16 10:06:56;;;;;;;;;;;24.70;35.90;;;;;;1511766;77;1932;-69
2021/04/16 10:09:01;;;;;;;;;;;24.60;35.70;;;;;;1490484;78;1217;-70
2021/04/16 10:11:04;;;;;;;;;;;24.70;35.90;;;;;;1519260;77;730;-70
2021/04/16 10:13:06;;;;;;;;;;;24.60;35.80;;;;;;1514198;77;720;-72
2021/04/16 10:15:16;;;;;;;;;;;24.60;36.00;;;;;;1535607;73;215804;-61
2021/04/16 10:17:20;;;;;;;;;;;24.50;36.00;;;;;;1569771;73;1780;-58
2021/04/16 10:19:23;;;;;;;;;;;24.50;36.10;;;;;;1563870;73;1897;-58
2021/04/16 10:21:26;;;;;;;;;;;24.50;36.00;;;;;;1545592;75;793;-59
2021/04/16 10:23:29;;;;;;;;;;;24.50;36.00;;;;;;1558040;75;798;-57
2021/04/16 10:29:06;;;;;;;;;;;24.60;36.00;;;;;;1551332;75;1654;-58
2021/04/16 10:35:33;;;;;;;;;;;24.50;36.30;;;;;;1559247;75;846;-61
2021/04/16 12:39:43;;;;;;;;;;;24.00;39.20;;;;;;1560482;75;1631;-57
2021/04/16 12:41:48;;;;;;;;;;;24.00;39.20;;;;;;1567504;75;815;-59
2021/04/16 12:43:50;;;;;;;;;;;24.10;39.50;;;;;;1560694;75;2046;-60
2021/04/16 12:45:53;;;;;;;;;;;24.10;39.40;;;;;;1565460;75;1915;-59
2021/04/16 12:47:58;;;;;;;;;;;24.20;39.40;;;;;;1561690;75;712;-57
2021/04/16 12:49:59;;;;;;;;;;;24.30;39.60;;;;;;1567000;73;1753;-59
2021/04/16 12:52:05;;;;;;;;;;;24.20;39.50;;;;;;1559126;75;764;-58
2021/04/16 12:54:05;;;;;;;;;;;24.30;39.70;;;;;;1557040;75;1626;-59
2021/04/16 12:56:08;;;;;;;;;;;24.20;39.20;;;;;;1551778;75;692;-60
2021/04/16 12:58:10;;;;;;;;;;;24.30;39.10;;;;;;1553798;75;718;-62
2021/04/16 13:00:13;;;;;;;;;;;24.20;38.90;;;;;;1548388;75;1149;-57
2021/04/16 13:02:22;;;;;;;;;;;24.30;38.90;;;;;;1549866;75;805;-60
2021/04/16 13:04:24;;;;;;;;;;;24.30;38.70;;;;;;1552446;75;777;-59
2021/04/16 13:06:34;;;;;;;;;;;24.30;38.60;;;;;;1552719;75;1908;-59
2021/04/16 13:08:36;;;;;;;;;;;24.30;38.60;;;;;;1546674;75;1102;-59
2021/04/16 13:10:38;;;;;;;;;;;24.30;38.50;;;;;;1550611;75;675;-59
2021/04/16 13:12:39;;;;;;;;;;;24.30;37.80;;;;;;1549878;75;723;-59
2021/04/16 13:14:41;;;;;;;;;;;24.20;37.80;;;;;;1551099;75;754;-59
2021/04/16 13:16:43;;;;;;;;;;;24.10;37.80;;;;;;1555637;75;789;-59
2021/04/16 13:18:46;;;;;;;;;;;24.20;37.60;;;;;;1560466;75;1129;-58
2021/04/16 13:20:48;;;;;;;;;;;24.20;37.50;;;;;;1557978;75;720;-59
2021/04/16 13:22:50;;;;;;;;;;;24.20;37.40;;;;;;1556728;75;801;-58
2021/04/16 13:24:52;;;;;;;;;;;24.20;37.30;;;;;;1556782;75;727;-59
2021/04/16 13:26:53;;;;;;;;;;;24.10;37.30;;;;;;1558359;75;1942;-58
2021/04/16 13:28:55;;;;;;;;;;;24.20;37.30;;;;;;1561227;75;1092;-59
2021/04/16 13:30:57;;;;;;;;;;;24.20;37.30;;;;;;1558021;75;768;-59
2021/04/16 13:33:00;;;;;;;;;;;24.10;37.10;;;;;;1556387;75;767;-59
2021/04/16 13:35:02;;;;;;;;;;;24.10;37.20;;;;;;1560575;75;818;-59
2021/04/16 13:37:04;;;;;;;;;;;24.20;37.10;;;;;;1560287;75;779;-59
2021/04/16 13:39:06;;;;;;;;;;;24.20;37.10;;;;;;1560458;75;1162;-58
2021/04/16 13:41:08;;;;;;;;;;;24.20;37.00;;;;;;1555646;75;809;-57
2021/04/16 13:43:10;;;;;;;;;;;24.10;37.10;;;;;;1555271;75;824;-58
2021/04/16 13:45:12;;;;;;;;;;;24.10;37.10;;;;;;1567812;75;695;-59
2021/04/16 13:47:16;;;;;;;;;;;24.20;37.00;;;;;;1559658;75;1946;-58
2021/04/16 13:49:20;;;;;;;;;;;24.10;37.00;;;;;;1557660;75;1102;-57
2021/04/16 13:51:23;;;;;;;;;;;24.10;37.00;;;;;;1555563;75;937;-59
2021/04/16 13:53:24;;;;;;;;;;;24.00;36.80;;;;;;1561490;75;748;-59
2021/04/16 13:55:26;;;;;;;;;;;24.00;36.80;;;;;;1564177;75;814;-59
2021/04/16 13:57:28;;;;;;;;;;;24.10;36.90;;;;;;1554550;75;787;-59
2021/04/16 13:59:33;;;;;;;;;;;24.00;36.70;;;;;;1552126;75;1133;-59
2021/04/16 14:01:35;;;;;;;;;;;24.00;36.70;;;;;;1555712;75;793;-59
2021/04/16 14:03:44;;;;;;;;;;;24.00;36.80;;;;;;1541253;75;778;-59
2021/04/16 14:05:48;;;;;;;;;;;24.00;36.80;;;;;;1553696;75;1702;-59
2021/04/16 14:07:50;;;;;;;;;;;24.00;36.70;;;;;;1548138;75;1955;-59
2021/04/16 14:09:52;;;;;;;;;;;24.00;36.70;;;;;;1550527;75;1119;-59
2021/04/16 14:11:54;;;;;;;;;;;24.00;36.70;;;;;;1555727;75;865;-57
2021/04/16 14:13:55;;;;;;;;;;;23.90;36.70;;;;;;1554337;75;780;-59
2021/04/16 14:15:58;;;;;;;;;;;24.00;36.70;;;;;;1557789;75;718;-58
2021/04/16 14:18:00;;;;;;;;;;;23.90;36.80;;;;;;1556108;75;797;-59
2021/04/16 14:20:04;;;;;;;;;;;23.90;36.70;;;;;;1558922;75;1152;-59
2021/04/16 14:22:06;;;;;;;;;;;23.90;36.80;;;;;;1560333;75;1346;-59
2021/04/16 14:24:09;;;;;;;;;;;23.90;36.90;;;;;;1565456;74;1178;-59